createdAt,value
2019-06-01T00:00:19.384Z,14.80
2019-06-01T00:02:56.096Z,14.80
2019-06-01T00:05:25.019Z,14.70
2019-06-01T00:07:55.817Z,14.90
2019-06-01T00:10:27.685Z,14.80
2019-06-01T00:12:59.681Z,14.70
2019-06-01T00:15:30.642Z,14.50
2019-06-01T00:18:01.479Z,14.50
2019-06-01T00:20:33.348Z,14.70
2019-06-01T00:23:05.613Z,14.70
2019-06-01T00:25:36.545Z,14.60
2019-06-01T00:28:08.405Z,14.60
2019-06-01T00:30:39.343Z,14.60
2019-06-01T00:33:11.779Z,14.50
2019-06-01T00:35:43.499Z,14.50
2019-06-01T00:38:14.616Z,14.30
2019-06-01T00:40:45.844Z,14.10
2019-06-01T00:43:17.003Z,13.90
2019-06-01T00:45:48.573Z,14.00
2019-06-01T00:48:19.651Z,14.30
2019-06-01T00:50:51.032Z,14.10
2019-06-01T00:53:23.185Z,14.10
2019-06-01T00:55:53.953Z,14.10
2019-06-01T00:58:24.779Z,14.00
2019-06-01T01:00:55.723Z,14.00
2019-06-01T01:03:27.783Z,13.90
2019-06-01T01:05:58.787Z,13.60
2019-06-01T01:08:29.659Z,13.60
2019-06-01T01:11:00.495Z,13.50
2019-06-01T01:13:31.301Z,13.50
2019-06-01T01:16:02.166Z,13.70
2019-06-01T01:18:33.103Z,13.60
2019-06-01T01:21:04.004Z,13.60
2019-06-01T01:23:34.884Z,13.50
2019-06-01T01:26:05.816Z,13.50
2019-06-01T01:28:36.547Z,13.60
2019-06-01T01:31:13.856Z,13.50
2019-06-01T01:33:41.045Z,13.50
2019-06-01T01:36:11.819Z,13.30
2019-06-01T01:38:42.756Z,13.30
2019-06-01T01:41:13.592Z,13.30
2019-06-01T01:43:45.867Z,13.20
2019-06-01T01:46:16.601Z,13.30
2019-06-01T01:48:47.533Z,13.20
2019-06-01T01:51:18.577Z,13.10
2019-06-01T01:53:50.782Z,13.10
2019-06-01T01:56:21.677Z,13.10
2019-06-01T01:58:52.545Z,13.20
2019-06-01T02:01:23.474Z,13.30
2019-06-01T02:03:57.283Z,13.30
2019-06-01T02:06:29.304Z,13.20
2019-06-01T02:09:01.791Z,13.20
2019-06-01T02:11:34.344Z,13.10
2019-06-01T02:14:06.418Z,13.00
2019-06-01T02:16:37.372Z,13.00
2019-06-01T02:19:08.246Z,12.90
2019-06-01T02:21:39.113Z,12.90
2019-06-01T02:24:10.089Z,12.90
2019-06-01T02:26:41.023Z,12.80
2019-06-01T02:29:12.024Z,12.80
2019-06-01T02:31:43.061Z,12.80
2019-06-01T02:34:15.372Z,12.80
2019-06-01T02:36:46.211Z,12.70
2019-06-01T02:39:17.411Z,12.70
2019-06-01T02:41:48.773Z,12.70
2019-06-01T02:44:21.286Z,12.70
2019-06-01T02:46:52.219Z,12.70
2019-06-01T02:49:23.104Z,12.50
2019-06-01T02:51:55.063Z,12.60
2019-06-01T02:54:26.106Z,12.50
2019-06-01T02:56:57.891Z,12.40
2019-06-01T02:59:28.949Z,12.40
2019-06-01T03:02:06.720Z,12.40
2019-06-01T03:04:33.946Z,12.30
2019-06-01T03:07:06.807Z,12.20
2019-06-01T03:09:39.944Z,12.20
2019-06-01T03:12:13.033Z,12.20
2019-06-01T03:14:47.249Z,12.30
2019-06-01T03:17:20.055Z,12.30
2019-06-01T03:19:52.566Z,12.30
2019-06-01T03:22:25.428Z,12.40
2019-06-01T03:25:00.408Z,12.40
2019-06-01T03:27:32.998Z,12.20
2019-06-01T03:30:09.822Z,12.20
2019-06-01T03:32:40.918Z,12.30
2019-06-01T03:35:13.314Z,12.40
2019-06-01T03:37:44.077Z,12.40
2019-06-01T03:40:23.559Z,12.40
2019-06-01T03:42:47.459Z,12.30
2019-06-01T03:45:18.293Z,12.30
2019-06-01T03:47:49.231Z,12.40
2019-06-01T03:50:21.398Z,12.40
2019-06-01T03:52:52.290Z,12.40
2019-06-01T03:55:23.170Z,12.50
2019-06-01T03:57:55.318Z,12.50
2019-06-01T04:00:27.402Z,12.70
2019-06-01T04:02:58.306Z,12.80
2019-06-01T04:05:29.277Z,12.90
2019-06-01T04:08:01.264Z,13.00
2019-06-01T04:10:33.321Z,13.30
2019-06-01T04:13:04.118Z,13.30
2019-06-01T04:15:35.282Z,13.50
2019-06-01T04:18:08.057Z,13.50
2019-06-01T04:20:40.442Z,13.60
2019-06-01T04:23:12.395Z,13.80
2019-06-01T04:25:43.538Z,14.10
2019-06-01T04:28:14.375Z,14.40
2019-06-01T04:30:47.731Z,14.70
2019-06-01T04:33:18.810Z,14.90
2019-06-01T04:35:49.556Z,15.20
2019-06-01T04:38:20.550Z,15.60
2019-06-01T04:40:54.161Z,16.00
2019-06-01T04:43:24.917Z,16.20
2019-06-01T04:45:55.855Z,16.20
2019-06-01T04:48:26.793Z,16.30
2019-06-01T04:50:59.793Z,16.30
2019-06-01T04:53:30.717Z,16.30
2019-06-01T04:56:01.552Z,16.40
2019-06-01T04:58:32.491Z,16.40
2019-06-01T05:01:05.453Z,16.50
2019-06-01T05:03:36.313Z,16.70
2019-06-01T05:06:07.291Z,16.90
2019-06-01T05:08:38.290Z,17.00
2019-06-01T05:11:10.226Z,17.10
2019-06-01T05:13:41.739Z,17.00
2019-06-01T05:16:13.423Z,17.10
2019-06-01T05:18:46.138Z,17.20
2019-06-01T05:21:18.085Z,17.20
2019-06-01T05:23:48.909Z,17.40
2019-06-01T05:26:20.789Z,17.50
2019-06-01T05:28:51.659Z,17.70
2019-06-01T05:31:25.336Z,17.60
2019-06-01T05:33:56.082Z,17.60
2019-06-01T05:36:27.004Z,17.50
2019-06-01T05:38:57.737Z,17.60
2019-06-01T05:41:29.921Z,17.70
2019-06-01T05:44:00.740Z,18.10
2019-06-01T05:46:32.579Z,18.20
2019-06-01T05:49:03.434Z,18.40
2019-06-01T05:51:35.305Z,18.60
2019-06-01T05:54:06.218Z,19.30
2019-06-01T05:56:37.073Z,21.00
2019-06-01T05:59:07.880Z,21.00
2019-06-01T06:01:38.636Z,20.40
2019-06-01T06:04:09.471Z,20.10
2019-06-01T06:06:40.413Z,21.20
2019-06-01T06:09:11.688Z,21.50
2019-06-01T06:11:43.004Z,22.20
2019-06-01T06:14:15.390Z,21.70
2019-06-01T06:16:46.517Z,22.00
2019-06-01T06:19:21.120Z,22.70
2019-06-01T06:21:51.261Z,23.70
2019-06-01T06:24:22.714Z,24.70
2019-06-01T06:26:54.646Z,25.70
2019-06-01T06:29:25.427Z,24.50
2019-06-01T06:31:56.344Z,24.70
2019-06-01T06:34:27.180Z,24.30
2019-06-01T06:36:58.117Z,24.10
2019-06-01T06:39:29.568Z,22.80
2019-06-01T06:42:00.420Z,23.10
2019-06-01T06:44:31.348Z,24.90
2019-06-01T06:47:02.280Z,25.30
2019-06-01T06:49:34.422Z,25.30
2019-06-01T06:52:05.303Z,26.10
2019-06-01T06:54:36.117Z,25.70
2019-06-01T06:57:07.261Z,26.80
2019-06-01T06:59:39.837Z,26.80
2019-06-01T07:02:10.707Z,27.60
2019-06-01T07:04:41.588Z,27.60
2019-06-01T07:07:13.191Z,28.10
2019-06-01T07:09:45.230Z,28.70
2019-06-01T07:12:16.165Z,28.40
2019-06-01T07:14:47.026Z,28.50
2019-06-01T07:17:17.899Z,28.80
2019-06-01T07:19:48.774Z,28.70
2019-06-01T07:22:19.773Z,28.60
2019-06-01T07:24:50.959Z,28.40
2019-06-01T07:27:22.030Z,29.20
2019-06-01T07:29:53.960Z,29.20
2019-06-01T07:32:24.735Z,29.10
2019-06-01T07:34:55.697Z,28.90
2019-06-01T07:37:26.780Z,29.00
2019-06-01T07:39:57.814Z,29.20
2019-06-01T07:42:29.492Z,29.80
2019-06-01T07:45:01.540Z,29.10
2019-06-01T07:47:34.006Z,29.40
2019-06-01T07:50:06.785Z,29.70
2019-06-01T07:52:37.959Z,28.80
2019-06-01T07:55:08.978Z,29.60
2019-06-01T07:57:42.888Z,29.20
2019-06-01T08:00:12.436Z,29.50
2019-06-01T08:02:43.882Z,30.10
2019-06-01T08:05:14.875Z,29.30
2019-06-01T08:07:45.963Z,29.60
2019-06-01T08:10:24.855Z,29.20
2019-06-01T08:13:01.058Z,29.50
2019-06-01T08:15:34.546Z,29.00
2019-06-01T08:18:05.339Z,29.90
2019-06-01T08:20:38.218Z,30.40
2019-06-01T08:23:10.133Z,30.90
2019-06-01T08:25:40.943Z,30.90
2019-06-01T08:28:12.162Z,31.20
2019-06-01T08:30:44.306Z,31.20
2019-06-01T08:33:15.572Z,30.80
2019-06-01T08:35:46.313Z,31.80
2019-06-01T08:38:17.268Z,31.80
2019-06-01T08:40:49.110Z,31.30
2019-06-01T08:43:20.093Z,30.40
2019-06-01T08:45:51.082Z,32.40
2019-06-01T08:48:22.019Z,32.40
2019-06-01T08:50:52.843Z,32.60
2019-06-01T08:53:23.827Z,32.90
2019-06-01T08:55:54.935Z,33.30
2019-06-01T08:58:26.212Z,33.00
2019-06-01T09:00:57.187Z,31.90
2019-06-01T09:03:28.160Z,30.80
2019-06-01T09:05:59.055Z,31.50
2019-06-01T09:08:30.918Z,32.60
2019-06-01T09:11:02.929Z,32.50
2019-06-01T09:13:33.857Z,31.90
2019-06-01T09:16:06.243Z,32.70
2019-06-01T09:18:37.223Z,32.60
2019-06-01T09:21:08.078Z,32.30
2019-06-01T09:26:09.316Z,30.60
2019-06-01T09:28:40.202Z,28.80
2019-06-01T09:31:12.472Z,30.80
2019-06-01T09:33:43.410Z,32.60
2019-06-01T09:36:14.348Z,31.20
2019-06-01T09:38:45.022Z,30.90
2019-06-01T09:41:17.608Z,30.00
2019-06-01T09:43:48.679Z,32.30
2019-06-01T09:46:19.637Z,32.20
2019-06-01T09:48:51.602Z,33.80
2019-06-01T09:51:23.876Z,33.30
2019-06-01T09:53:54.703Z,32.80
2019-06-01T09:56:25.643Z,33.80
2019-06-01T09:58:56.379Z,34.40
2019-06-01T10:01:28.181Z,33.80
2019-06-01T10:03:59.117Z,35.50
2019-06-01T10:06:30.383Z,35.00
2019-06-01T10:09:01.356Z,33.40
2019-06-01T10:11:34.297Z,33.40
2019-06-01T10:14:05.597Z,33.10
2019-06-01T10:16:39.003Z,34.70
2019-06-01T10:19:10.027Z,35.00
2019-06-01T10:21:42.302Z,34.30
2019-06-01T10:24:13.310Z,33.20
2019-06-01T10:26:44.095Z,34.50
2019-06-01T10:29:14.981Z,34.40
2019-06-01T10:31:47.142Z,33.00
2019-06-01T10:34:17.907Z,31.60
2019-06-01T10:36:48.822Z,31.00
2019-06-01T10:39:19.900Z,31.30
2019-06-01T10:41:53.111Z,32.10
2019-06-01T10:44:23.884Z,33.00
2019-06-01T10:46:55.175Z,33.40
2019-06-01T10:49:26.046Z,34.20
2019-06-01T10:51:57.030Z,32.10
2019-06-01T10:54:27.975Z,31.20
2019-06-01T10:56:58.804Z,29.60
2019-06-01T10:59:29.846Z,30.40
2019-06-01T11:02:01.809Z,29.30
2019-06-01T11:04:32.848Z,29.00
2019-06-01T11:07:03.994Z,29.00
2019-06-01T11:09:34.932Z,29.60
2019-06-01T11:12:07.278Z,31.30
2019-06-01T11:14:39.074Z,32.60
2019-06-01T11:17:11.224Z,33.70
2019-06-01T11:19:42.123Z,34.40
2019-06-01T11:22:14.330Z,35.20
2019-06-01T11:24:45.298Z,34.10
2019-06-01T11:27:16.179Z,35.00
2019-06-01T11:29:51.290Z,35.00
2019-06-01T11:32:20.972Z,34.50
2019-06-01T11:34:51.786Z,33.20
2019-06-01T11:37:22.538Z,33.70
2019-06-01T11:39:53.428Z,34.90
2019-06-01T11:42:27.999Z,34.40
2019-06-01T11:44:59.172Z,34.40
2019-06-01T11:47:29.955Z,33.60
2019-06-01T11:50:01.927Z,33.90
2019-06-01T11:52:34.947Z,34.20
2019-06-01T11:55:09.322Z,34.00
2019-06-01T11:57:41.482Z,34.50
2019-06-01T12:00:14.119Z,33.70
2019-06-01T12:02:46.300Z,34.00
2019-06-01T12:05:17.254Z,35.60
2019-06-01T12:07:49.633Z,35.60
2019-06-01T12:10:20.481Z,35.40
2019-06-01T12:12:52.443Z,34.70
2019-06-01T12:15:26.616Z,34.60
2019-06-01T12:17:56.079Z,34.50
2019-06-01T12:20:27.049Z,33.90
2019-06-01T12:22:57.811Z,34.40
2019-06-01T12:25:28.640Z,34.50
2019-06-01T12:27:59.480Z,34.30
2019-06-01T12:30:30.365Z,33.70
2019-06-01T12:33:01.242Z,33.60
2019-06-01T12:35:32.115Z,33.90
2019-06-01T12:38:06.928Z,34.20
2019-06-01T12:40:35.323Z,34.60
2019-06-01T12:43:06.258Z,34.80
2019-06-01T12:45:37.106Z,34.80
2019-06-01T12:48:08.083Z,33.60
2019-06-01T12:50:39.981Z,34.20
2019-06-01T12:53:13.597Z,34.50
2019-06-01T12:55:45.221Z,34.60
2019-06-01T12:58:16.872Z,34.20
2019-06-01T13:00:48.472Z,34.70
2019-06-01T13:03:20.350Z,34.30
2019-06-01T13:05:51.919Z,34.00
2019-06-01T13:08:22.876Z,33.10
2019-06-01T13:10:53.707Z,33.60
2019-06-01T13:13:27.005Z,33.40
2019-06-01T13:15:58.444Z,33.50
2019-06-01T13:18:29.949Z,33.30
2019-06-01T13:21:01.473Z,33.90
2019-06-01T13:23:35.075Z,34.20
2019-06-01T13:26:06.545Z,33.60
2019-06-01T13:28:38.510Z,33.70
2019-06-01T13:31:09.850Z,33.60
2019-06-01T13:33:42.223Z,33.20
2019-06-01T13:36:13.739Z,33.20
2019-06-01T13:38:44.857Z,33.20
2019-06-01T13:41:15.958Z,33.20
2019-06-01T13:43:51.495Z,33.60
2019-06-01T13:46:22.195Z,33.20
2019-06-01T13:48:54.203Z,33.20
2019-06-01T13:51:25.128Z,33.20
2019-06-01T13:53:57.131Z,33.70
2019-06-01T13:56:28.321Z,33.00
2019-06-01T13:59:00.087Z,33.20
2019-06-01T14:01:31.556Z,33.80
2019-06-01T14:04:04.064Z,34.10
2019-06-01T14:06:35.479Z,33.70
2019-06-01T14:09:07.813Z,33.20
2019-06-01T14:11:40.013Z,33.00
2019-06-01T14:14:11.452Z,32.80
2019-06-01T14:16:43.183Z,33.70
2019-06-01T14:19:15.023Z,33.00
2019-06-01T14:21:47.626Z,32.70
2019-06-01T14:24:20.213Z,33.00
2019-06-01T14:26:52.356Z,32.90
2019-06-01T14:29:23.837Z,33.30
2019-06-01T14:31:55.816Z,33.30
2019-06-01T14:34:28.383Z,33.10
2019-06-01T14:36:59.531Z,32.50
2019-06-01T14:39:31.019Z,32.80
2019-06-01T14:42:02.510Z,33.40
2019-06-01T14:44:35.850Z,32.80
2019-06-01T14:47:07.325Z,32.80
2019-06-01T14:49:38.190Z,32.30
2019-06-01T14:52:09.050Z,32.40
2019-06-01T14:54:43.224Z,32.50
2019-06-01T14:57:16.301Z,32.30
2019-06-01T14:59:56.255Z,31.90
2019-06-01T15:02:27.623Z,31.70
2019-06-01T15:04:58.893Z,31.60
2019-06-01T15:07:30.168Z,31.40
2019-06-01T15:10:01.887Z,31.00
2019-06-01T15:12:34.027Z,31.00
2019-06-01T15:15:09.965Z,30.70
2019-06-01T15:17:41.490Z,30.70
2019-06-01T15:20:13.325Z,30.60
2019-06-01T15:22:44.637Z,30.60
2019-06-01T15:25:16.051Z,30.30
2019-06-01T15:27:47.443Z,29.90
2019-06-01T15:30:18.898Z,30.00
2019-06-01T15:32:51.890Z,29.80
2019-06-01T15:35:22.866Z,29.90
2019-06-01T15:37:58.380Z,30.00
2019-06-01T15:40:26.123Z,29.90
2019-06-01T15:42:57.358Z,29.50
2019-06-01T15:45:29.239Z,29.90
2019-06-01T15:48:00.630Z,30.00
2019-06-01T15:50:32.120Z,30.10
2019-06-01T15:53:03.560Z,29.50
2019-06-01T15:55:34.452Z,29.70
2019-06-01T15:58:05.382Z,29.80
2019-06-01T16:00:36.324Z,29.40
2019-06-01T16:03:07.126Z,29.80
2019-06-01T16:05:38.096Z,30.00
2019-06-01T16:08:08.976Z,30.10
2019-06-01T16:10:39.868Z,29.70
2019-06-01T16:13:10.579Z,29.90
2019-06-01T16:15:41.492Z,30.00
2019-06-01T16:18:12.755Z,29.90
2019-06-01T16:20:43.823Z,29.90
2019-06-01T16:23:17.496Z,29.40
2019-06-01T16:26:01.525Z,29.20
2019-06-01T16:28:21.144Z,29.40
2019-06-01T16:30:52.081Z,29.30
2019-06-01T16:33:24.500Z,29.20
2019-06-01T16:35:56.983Z,29.20
2019-06-01T16:38:28.276Z,29.10
2019-06-01T16:40:59.419Z,29.10
2019-06-01T16:43:33.650Z,29.00
2019-06-01T16:46:06.093Z,29.00
2019-06-01T16:48:39.576Z,29.00
2019-06-01T16:51:11.022Z,28.70
2019-06-01T16:53:43.436Z,28.80
2019-06-01T16:56:14.673Z,29.00
2019-06-01T16:58:46.148Z,28.50
2019-06-01T17:01:17.343Z,28.30
2019-06-01T17:03:51.510Z,28.10
2019-06-01T17:06:23.312Z,27.90
2019-06-01T17:08:54.671Z,27.90
2019-06-01T17:11:26.140Z,27.60
2019-06-01T17:13:56.883Z,27.50
2019-06-01T17:16:27.650Z,27.20
2019-06-01T17:18:58.982Z,27.00
2019-06-01T17:21:31.165Z,26.90
2019-06-01T17:24:06.110Z,26.80
2019-06-01T17:26:37.500Z,26.80
2019-06-01T17:29:08.856Z,26.90
2019-06-01T17:31:53.563Z,26.90
2019-06-01T17:34:13.868Z,26.90
2019-06-01T17:36:44.734Z,26.80
2019-06-01T17:39:16.559Z,26.90
2019-06-01T17:41:47.426Z,26.80
2019-06-01T17:44:19.790Z,26.70
2019-06-01T17:46:53.989Z,26.60
2019-06-01T17:49:25.365Z,26.50
2019-06-01T17:51:56.542Z,26.40
2019-06-01T17:54:29.030Z,26.10
2019-06-01T17:57:01.050Z,26.00
2019-06-01T17:59:32.388Z,26.00
2019-06-01T18:02:04.139Z,25.70
2019-06-01T18:04:38.430Z,25.50
2019-06-01T18:07:10.330Z,25.30
2019-06-01T18:09:41.583Z,25.10
2019-06-01T18:12:12.341Z,25.30
2019-06-01T18:14:47.322Z,25.20
2019-06-01T18:17:19.125Z,25.00
2019-06-01T18:19:50.235Z,24.70
2019-06-01T18:22:23.237Z,24.60
2019-06-01T18:24:59.217Z,24.50
2019-06-01T18:27:32.061Z,24.40
2019-06-01T18:30:04.730Z,24.40
2019-06-01T18:32:36.708Z,24.20
2019-06-01T18:35:09.422Z,24.00
2019-06-01T18:37:42.043Z,23.80
2019-06-01T18:40:13.996Z,23.80
2019-06-01T18:42:49.528Z,23.50
2019-06-01T18:45:20.871Z,23.70
2019-06-01T18:47:52.368Z,23.60
2019-06-01T18:50:24.303Z,23.30
2019-06-01T18:52:58.255Z,23.40
2019-06-01T18:55:30.713Z,23.20
2019-06-01T18:58:03.927Z,23.10
2019-06-01T19:00:40.149Z,23.10
2019-06-01T19:03:13.591Z,23.00
2019-06-01T19:05:46.446Z,22.80
2019-06-01T19:08:17.313Z,22.70
2019-06-01T19:10:48.952Z,22.50
2019-06-01T19:13:20.545Z,22.30
2019-06-01T19:15:53.062Z,22.10
2019-06-01T19:18:24.342Z,22.10
2019-06-01T19:20:56.305Z,21.80
2019-06-01T19:23:28.438Z,21.70
2019-06-01T19:26:01.075Z,21.60
2019-06-01T19:28:32.359Z,21.30
2019-06-01T19:31:04.097Z,21.20
2019-06-01T19:33:35.976Z,21.20
2019-06-01T19:36:09.370Z,21.00
2019-06-01T19:38:42.039Z,20.80
2019-06-01T19:41:15.540Z,20.90
2019-06-01T19:43:47.551Z,20.90
2019-06-01T19:46:20.925Z,20.70
2019-06-01T19:48:53.658Z,20.50
2019-06-01T19:51:25.856Z,20.30
2019-06-01T19:53:58.582Z,20.30
2019-06-01T19:56:31.124Z,20.20
2019-06-01T19:59:02.609Z,20.10
2019-06-01T20:01:34.737Z,19.90
2019-06-01T20:04:06.556Z,20.10
2019-06-01T20:06:40.568Z,20.30
2019-06-01T20:09:13.016Z,19.90
2019-06-01T20:12:00.567Z,19.70
2019-06-01T20:14:19.193Z,19.60
2019-06-01T20:16:50.209Z,19.50
2019-06-01T20:19:21.884Z,19.30
2019-06-01T20:21:53.451Z,19.20
2019-06-01T20:24:24.433Z,19.00
2019-06-01T20:26:56.504Z,19.00
2019-06-01T20:29:27.793Z,18.80
2019-06-01T20:31:59.501Z,18.60
2019-06-01T20:34:31.171Z,18.60
2019-06-01T20:37:05.372Z,18.60
2019-06-01T20:39:39.438Z,18.50
2019-06-01T20:42:22.109Z,18.40
2019-06-01T20:44:43.510Z,18.40
2019-06-01T20:47:16.633Z,18.20
2019-06-01T20:49:48.702Z,18.00
2019-06-01T20:52:20.930Z,17.90
2019-06-01T20:54:52.182Z,17.90
2019-06-01T20:57:24.349Z,17.90
2019-06-01T20:59:55.897Z,17.90
2019-06-01T21:02:27.035Z,17.70
2019-06-01T21:04:58.183Z,17.70
2019-06-01T21:07:30.559Z,17.70
2019-06-01T21:10:01.536Z,17.50
2019-06-01T21:12:44.933Z,17.40
2019-06-01T21:15:07.299Z,17.40
2019-06-01T21:17:39.917Z,17.40
2019-06-01T21:20:11.558Z,17.40
2019-06-01T21:22:43.126Z,17.10
2019-06-01T21:25:14.734Z,17.10
2019-06-01T21:27:48.223Z,17.20
2019-06-01T21:30:22.580Z,17.00
2019-06-01T21:32:53.862Z,17.00
2019-06-01T21:35:25.548Z,16.90
2019-06-01T21:37:57.681Z,16.80
2019-06-01T21:40:29.243Z,16.70
2019-06-01T21:43:12.827Z,16.60
2019-06-01T21:45:34.034Z,16.70
2019-06-01T21:48:06.507Z,16.50
2019-06-01T21:50:38.678Z,16.60
2019-06-01T21:53:11.563Z,16.40
2019-06-01T21:55:42.985Z,16.70
2019-06-01T21:58:16.483Z,16.50
2019-06-01T22:00:48.516Z,16.50
2019-06-01T22:03:27.095Z,16.60
2019-06-01T22:05:54.360Z,16.30
2019-06-01T22:08:27.495Z,16.40
2019-06-01T22:11:00.905Z,16.30
2019-06-01T22:13:32.091Z,16.60
2019-06-01T22:16:03.272Z,16.40
2019-06-01T22:18:35.622Z,16.40
2019-06-01T22:21:07.300Z,16.30
2019-06-01T22:23:38.393Z,16.30
2019-06-01T22:26:09.468Z,16.00
2019-06-01T22:28:41.597Z,16.10
2019-06-01T22:31:12.675Z,16.00
2019-06-01T22:33:43.717Z,15.80
2019-06-01T22:36:15.098Z,15.70
2019-06-01T22:38:47.432Z,15.40
2019-06-01T22:41:19.811Z,15.40
2019-06-01T22:43:51.155Z,15.30
2019-06-01T22:46:22.345Z,15.30
2019-06-01T22:48:53.439Z,15.10
2019-06-01T22:51:25.023Z,15.10
2019-06-01T22:53:56.469Z,15.10
2019-06-01T22:56:27.576Z,15.20
2019-06-01T23:01:30.589Z,15.20
2019-06-01T23:04:01.634Z,15.20
2019-06-01T23:06:32.563Z,15.20
2019-06-01T23:09:07.693Z,15.20
2019-06-01T23:11:38.740Z,15.10
2019-06-01T23:14:09.988Z,15.00
2019-06-01T23:16:41.277Z,14.90
2019-06-01T23:19:13.503Z,14.80
2019-06-01T23:21:44.595Z,14.80
2019-06-01T23:24:15.627Z,14.70
2019-06-01T23:26:46.830Z,14.50
2019-06-01T23:29:18.275Z,14.60
2019-06-01T23:31:49.421Z,14.50
2019-06-01T23:34:20.359Z,14.50
2019-06-01T23:36:51.795Z,14.70
2019-06-01T23:39:22.793Z,14.70
2019-06-01T23:41:53.695Z,14.70
2019-06-01T23:44:24.851Z,14.60
2019-06-01T23:46:57.016Z,14.50
2019-06-01T23:49:29.252Z,14.30
2019-06-01T23:52:00.201Z,14.40
2019-06-01T23:54:32.427Z,14.30
2019-06-01T23:57:03.819Z,14.30
2019-06-01T23:59:35.546Z,14.30
